createdAt,value
2018-09-29T00:04:25.769Z,19.20
2018-09-29T00:09:55.036Z,17.90
2018-09-29T00:15:24.370Z,16.90
2018-09-29T00:20:53.675Z,24.92
2018-09-29T00:26:22.987Z,18.25
2018-09-29T00:31:52.241Z,18.25
2018-09-29T00:37:21.615Z,20.55
2018-09-29T00:42:50.981Z,20.90
2018-09-29T00:48:21.355Z,19.00
2018-09-29T00:53:50.700Z,22.95
2018-09-29T00:59:20.127Z,17.75
2018-09-29T01:04:49.447Z,19.17
2018-09-29T01:10:18.924Z,18.65
2018-09-29T01:15:48.190Z,15.48
2018-09-29T01:21:18.592Z,18.95
2018-09-29T01:26:48.684Z,25.90
2018-09-29T01:32:18.055Z,20.60
2018-09-29T01:37:47.378Z,18.80
2018-09-29T01:43:16.782Z,24.00
2018-09-29T01:48:46.127Z,16.57
2018-09-29T01:54:17.747Z,19.57
2018-09-29T01:59:47.838Z,16.02
2018-09-29T02:05:17.140Z,16.60
2018-09-29T02:10:46.559Z,15.95
2018-09-29T02:16:15.941Z,17.70
2018-09-29T02:21:45.220Z,18.48
2018-09-29T02:27:14.441Z,18.15
2018-09-29T02:32:43.708Z,15.38
2018-09-29T02:38:13.105Z,14.00
2018-09-29T02:43:42.339Z,12.47
2018-09-29T02:49:13.684Z,20.32
2018-09-29T02:54:42.949Z,15.30
2018-09-29T03:00:12.205Z,14.90
2018-09-29T03:05:42.480Z,12.40
2018-09-29T03:11:11.915Z,14.20
2018-09-29T03:16:41.252Z,13.25
2018-09-29T03:22:10.482Z,17.52
2018-09-29T03:27:39.653Z,13.60
2018-09-29T03:33:08.993Z,13.20
2018-09-29T03:38:38.219Z,12.58
2018-09-29T03:44:09.068Z,10.95
2018-09-29T03:49:38.358Z,12.90
2018-09-29T03:55:07.613Z,15.90
2018-09-29T04:00:36.831Z,10.95
2018-09-29T04:06:06.032Z,13.78
2018-09-29T04:11:35.272Z,18.85
2018-09-29T04:17:04.572Z,11.00
2018-09-29T04:22:33.818Z,15.08
2018-09-29T04:28:03.011Z,18.85
2018-09-29T04:33:32.261Z,8.38
2018-09-29T04:39:01.563Z,7.85
2018-09-29T04:44:30.791Z,9.40
2018-09-29T04:49:59.959Z,11.43
2018-09-29T04:55:29.175Z,10.30
2018-09-29T05:00:58.420Z,11.73
2018-09-29T05:06:27.659Z,9.30
2018-09-29T05:11:56.828Z,10.95
2018-09-29T05:17:27.132Z,12.03
2018-09-29T05:22:56.324Z,9.83
2018-09-29T05:28:25.573Z,13.20
2018-09-29T05:33:54.864Z,9.93
2018-09-29T05:39:24.247Z,11.30
2018-09-29T05:44:54.688Z,13.32
2018-09-29T05:50:23.967Z,7.72
2018-09-29T05:55:53.671Z,11.43
2018-09-29T06:01:22.899Z,7.22
2018-09-29T06:06:52.223Z,14.00
2018-09-29T06:12:21.660Z,8.28
2018-09-29T06:17:51.101Z,10.32
2018-09-29T06:23:21.423Z,16.50
2018-09-29T06:28:50.748Z,7.42
2018-09-29T06:34:20.175Z,8.03
2018-09-29T06:39:49.698Z,11.63
2018-09-29T06:45:19.013Z,9.63
2018-09-29T06:50:48.599Z,8.88
2018-09-29T06:56:17.931Z,9.45
2018-09-29T07:01:48.333Z,6.33
2018-09-29T07:07:19.906Z,9.83
2018-09-29T07:12:50.250Z,15.30
2018-09-29T07:18:19.994Z,15.32
2018-09-29T07:23:49.586Z,8.85
2018-09-29T07:29:19.080Z,9.23
2018-09-29T07:34:48.545Z,12.75
2018-09-29T07:40:18.999Z,9.15
2018-09-29T07:45:48.462Z,7.58
2018-09-29T07:51:17.796Z,8.58
2018-09-29T07:56:47.299Z,9.95
2018-09-29T08:02:17.772Z,19.32
2018-09-29T08:07:47.162Z,9.40
2018-09-29T08:13:16.788Z,17.23
2018-09-29T08:18:46.075Z,7.22
2018-09-29T08:24:15.409Z,8.75
2018-09-29T08:29:44.851Z,9.63
2018-09-29T08:35:15.835Z,9.55
2018-09-29T08:40:45.078Z,12.73
2018-09-29T08:46:14.283Z,10.95
2018-09-29T08:51:43.558Z,11.12
2018-09-29T08:57:12.748Z,9.20
2018-09-29T09:02:43.335Z,9.13
2018-09-29T09:08:12.735Z,15.35
2018-09-29T09:13:42.096Z,12.68
2018-09-29T09:19:11.347Z,13.00
2018-09-29T09:24:44.200Z,14.83
2018-09-29T09:30:13.726Z,10.93
2018-09-29T09:35:46.347Z,7.22
2018-09-29T09:41:15.735Z,9.83
2018-09-29T09:46:45.289Z,11.30
2018-09-29T09:52:14.579Z,8.35
2018-09-29T09:57:45.008Z,12.40
2018-09-29T10:03:23.143Z,13.30
2018-09-29T10:08:52.539Z,9.55
2018-09-29T10:14:21.794Z,10.93
2018-09-29T10:19:51.191Z,9.75
2018-09-29T10:25:21.356Z,14.90
2018-09-29T10:30:50.981Z,20.00
2018-09-29T10:36:20.814Z,11.20
2018-09-29T10:41:50.048Z,12.58
2018-09-29T10:47:23.909Z,12.80
2018-09-29T10:52:53.405Z,11.30
2018-09-29T10:58:24.388Z,19.77
2018-09-29T11:03:53.824Z,13.30
2018-09-29T11:09:24.144Z,11.25
2018-09-29T11:14:56.316Z,14.23
2018-09-29T11:20:26.348Z,11.55
2018-09-29T11:25:57.182Z,10.28
2018-09-29T11:31:27.504Z,13.03
2018-09-29T11:36:56.872Z,11.63
2018-09-29T11:42:26.480Z,11.65
2018-09-29T11:47:55.737Z,14.55
2018-09-29T11:53:25.163Z,9.90
2018-09-29T11:58:54.748Z,12.40
2018-09-29T12:04:25.509Z,15.10
2018-09-29T12:09:55.848Z,17.25
2018-09-29T12:15:25.353Z,15.00
2018-09-29T12:20:54.865Z,8.53
2018-09-29T12:26:24.270Z,7.92
2018-09-29T12:31:53.778Z,9.93
2018-09-29T12:37:23.267Z,6.35
2018-09-29T12:42:52.696Z,11.80
2018-09-29T12:48:22.171Z,9.60
2018-09-29T12:53:51.543Z,11.73
2018-09-29T12:59:20.982Z,10.08
2018-09-29T13:04:50.336Z,6.42
2018-09-29T13:10:19.772Z,12.65
2018-09-29T13:15:49.392Z,11.55
2018-09-29T13:21:19.697Z,8.08
2018-09-29T13:26:49.314Z,5.72
2018-09-29T13:32:19.453Z,9.60
2018-09-29T13:37:49.989Z,7.90
2018-09-29T13:43:19.745Z,7.67
2018-09-29T13:48:51.428Z,7.58
2018-09-29T13:54:20.880Z,8.18
2018-09-29T13:59:50.393Z,12.28
2018-09-29T14:05:19.873Z,7.55
2018-09-29T14:10:50.105Z,7.65
2018-09-29T14:16:20.968Z,6.60
2018-09-29T14:21:50.525Z,9.38
2018-09-29T14:27:20.005Z,7.95
2018-09-29T14:32:51.564Z,8.85
2018-09-29T14:38:25.811Z,9.50
2018-09-29T14:43:57.733Z,8.35
2018-09-29T14:49:28.393Z,6.80
2018-09-29T14:54:59.102Z,7.40
2018-09-29T15:00:44.104Z,6.37
2018-09-29T15:06:14.564Z,8.55
2018-09-29T15:11:43.895Z,9.53
2018-09-29T15:17:24.222Z,11.93
2018-09-29T15:22:55.086Z,7.12
2018-09-29T15:28:27.490Z,9.95
2018-09-29T15:33:59.492Z,5.47
2018-09-29T15:39:31.353Z,8.63
2018-09-29T15:45:05.632Z,7.28
2018-09-29T15:50:35.072Z,10.32
2018-09-29T15:56:05.359Z,6.42
2018-09-29T16:01:37.081Z,7.95
2018-09-29T16:07:11.913Z,10.40
2018-09-29T16:12:41.307Z,7.53
2018-09-29T16:18:10.546Z,5.72
2018-09-29T16:23:39.844Z,6.08
2018-09-29T16:29:09.385Z,12.15
2018-09-29T16:34:38.639Z,6.25
2018-09-29T16:40:07.924Z,4.40
2018-09-29T16:45:37.207Z,8.05
2018-09-29T16:51:06.536Z,4.90
2018-09-29T16:56:35.909Z,5.97
2018-09-29T17:02:05.279Z,5.28
2018-09-29T17:07:37.296Z,6.92
2018-09-29T17:13:06.613Z,6.10
2018-09-29T17:18:36.005Z,7.17
2018-09-29T17:24:05.276Z,9.08
2018-09-29T17:29:34.683Z,11.33
2018-09-29T17:35:05.836Z,4.03
2018-09-29T17:40:35.191Z,8.23
2018-09-29T17:46:05.575Z,7.40
2018-09-29T17:51:34.926Z,6.62
2018-09-29T17:57:05.330Z,3.35
2018-09-29T18:02:34.662Z,5.47
2018-09-29T18:08:04.100Z,3.65
2018-09-29T18:13:33.754Z,9.25
2018-09-29T18:19:04.232Z,10.13
2018-09-29T18:24:34.608Z,6.65
2018-09-29T18:30:04.128Z,11.33
2018-09-29T18:35:35.348Z,5.97
2018-09-29T18:41:04.613Z,6.17
2018-09-29T18:46:33.997Z,13.15
2018-09-29T18:52:03.397Z,8.20
2018-09-29T18:57:34.859Z,8.10
2018-09-29T19:03:04.254Z,6.85
2018-09-29T19:08:35.564Z,6.55
2018-09-29T19:14:04.848Z,7.30
2018-09-29T19:19:34.424Z,9.20
2018-09-29T19:25:03.717Z,10.53
2018-09-29T19:30:33.069Z,5.05
2018-09-29T19:41:46.985Z,6.10
2018-09-29T19:47:16.625Z,4.30
2018-09-29T19:52:46.133Z,4.57
2018-09-29T19:58:15.762Z,3.10
2018-09-29T20:03:46.520Z,5.23
2018-09-29T20:09:16.137Z,5.73
2018-09-29T20:14:45.726Z,5.83
2018-09-29T20:20:15.139Z,6.90
2018-09-29T20:25:44.488Z,7.13
2018-09-29T20:31:18.463Z,6.03
2018-09-29T20:36:48.183Z,7.33
2018-09-29T20:42:23.211Z,12.73
2018-09-29T20:47:53.696Z,11.00
2018-09-29T20:53:23.468Z,5.43
2018-09-29T20:58:53.417Z,5.70
2018-09-29T21:04:23.074Z,4.97
2018-09-29T21:09:52.545Z,13.37
2018-09-29T21:15:22.231Z,5.53
2018-09-29T21:20:51.791Z,9.33
2018-09-29T21:26:22.438Z,13.43
2018-09-29T21:31:52.598Z,8.10
2018-09-29T21:37:22.234Z,4.93
2018-09-29T21:42:51.981Z,5.00
2018-09-29T21:48:21.703Z,7.23
2018-09-29T21:53:51.627Z,6.93
2018-09-29T21:59:21.972Z,8.33
2018-09-29T22:04:53.898Z,5.83
2018-09-29T22:10:25.350Z,11.73
2018-09-29T22:15:54.651Z,7.10
2018-09-29T22:21:24.221Z,6.70
2018-09-29T22:26:53.999Z,6.20
2018-09-29T22:32:23.347Z,4.43
2018-09-29T22:37:53.726Z,5.03
2018-09-29T22:43:23.201Z,5.93
2018-09-29T22:48:52.583Z,11.53
2018-09-29T22:54:22.015Z,8.50
2018-09-29T22:59:51.369Z,3.60
2018-09-29T23:05:20.697Z,7.40
2018-09-29T23:10:50.125Z,3.50
2018-09-29T23:16:19.566Z,6.20
2018-09-29T23:21:48.936Z,5.07
2018-09-29T23:27:18.409Z,3.90
2018-09-29T23:32:48.088Z,3.03
2018-09-29T23:38:17.460Z,4.17
2018-09-29T23:43:46.857Z,3.00
2018-09-29T23:49:16.082Z,5.20
2018-09-29T23:54:45.675Z,5.70
